Time;durP1;ratioP1;P1;durP2;ratioP2;P2;SDS_P1;SDS_P2;PMS_P1;PMS_P2;Temp;Humidity;BMP_temperature;BMP_pressure;BME280_temperature;BME280_humidity;BME280_pressure;Samples;Min_cycle;Max_cycle;Signal;HPM_P1;HPM_P2
2021/08/05 00:00:05;;;;;;;10.45;6.68;;;;;;;17.33;49.78;100710.34;7806423;29;20036;-64
2021/08/05 00:03:56;;;;;;;9.93;6.88;;;;;;;17.30;49.46;100717.78;7799459;29;20123;-64
2021/08/05 00:07:46;;;;;;;8.07;6.90;;;;;;;17.27;49.88;100710.97;7801990;29;20032;-64
2021/08/05 00:11:38;;;;;;;8.52;6.60;;;;;;;17.26;50.22;100714.59;7803982;29;20036;-64
2021/08/05 00:15:29;;;;;;;8.90;7.60;;;;;;;17.23;50.16;100712.25;7804711;29;20444;-64
2021/08/05 00:19:19;;;;;;;8.68;6.15;;;;;;;17.22;50.38;100713.22;7808044;29;20641;-64
2021/08/05 00:23:11;;;;;;;8.93;7.07;;;;;;;17.19;50.59;100710.88;7807188;29;20051;-64
2021/08/05 00:27:02;;;;;;;11.57;7.63;;;;;;;17.19;50.67;100708.22;7809183;29;20027;-64
2021/08/05 00:30:53;;;;;;;10.05;7.32;;;;;;;17.19;50.79;100699.41;7800634;29;20095;-64
2021/08/05 00:34:44;;;;;;;9.10;7.38;;;;;;;17.17;50.84;100691.56;7811714;29;20038;-64
2021/08/05 00:38:34;;;;;;;9.30;7.10;;;;;;;17.17;51.35;100696.06;7801426;29;20452;-64
2021/08/05 00:42:25;;;;;;;10.60;7.35;;;;;;;17.10;51.21;100685.19;7814131;29;20046;-64
2021/08/05 00:46:16;;;;;;;9.13;7.18;;;;;;;17.12;50.96;100685.88;7808445;29;20040;-64
2021/08/05 00:50:07;;;;;;;9.98;7.70;;;;;;;17.08;51.37;100688.00;7801533;29;20043;-64
2021/08/05 00:53:58;;;;;;;10.43;7.70;;;;;;;17.06;51.43;100686.47;7799707;29;20063;-64
2021/08/05 00:57:48;;;;;;;10.65;7.80;;;;;;;17.03;51.57;100684.13;7805226;29;20044;-64
2021/08/05 01:01:43;;;;;;;8.63;7.57;;;;;;;17.00;51.40;100681.75;7794442;29;20066;-64
2021/08/05 01:05:40;;;;;;;10.35;7.55;;;;;;;16.97;51.45;100680.25;7800227;29;20446;-64
2021/08/05 01:09:37;;;;;;;9.40;7.63;;;;;;;16.93;51.54;100686.81;7796145;29;20036;-64
2021/08/05 01:13:36;;;;;;;11.90;7.68;;;;;;;16.90;51.89;100689.75;7805902;29;20046;-64
2021/08/05 01:17:28;;;;;;;9.85;8.40;;;;;;;16.88;51.95;100685.53;7799693;29;20044;-64
2021/08/05 01:21:28;;;;;;;9.98;8.10;;;;;;;16.86;51.75;100682.22;7811139;29;20082;-64
2021/08/05 01:25:31;;;;;;;11.00;8.45;;;;;;;16.83;52.03;100685.13;7804594;29;20038;-64
2021/08/05 01:29:23;;;;;;;9.77;8.70;;;;;;;16.81;52.02;100682.66;7813180;29;20459;-64
2021/08/05 01:33:18;;;;;;;10.45;8.38;;;;;;;16.77;52.04;100673.31;7809525;29;20040;-64
2021/08/05 01:37:10;;;;;;;9.63;8.43;;;;;;;16.70;52.10;100656.28;7806031;29;20047;-64
2021/08/05 01:41:03;;;;;;;9.95;8.57;;;;;;;16.74;52.25;100662.97;7810543;29;20028;-64
2021/08/05 01:44:55;;;;;;;9.90;8.00;;;;;;;16.72;52.05;100658.81;7802313;29;20409;-64
2021/08/05 01:48:48;;;;;;;14.18;8.68;;;;;;;16.68;52.36;100658.28;7801417;29;20130;-64
2021/08/05 01:52:41;;;;;;;12.23;9.85;;;;;;;16.67;52.38;100661.06;7797081;29;20673;-64
2021/08/05 01:56:32;;;;;;;9.52;7.85;;;;;;;16.57;52.35;100643.41;7795742;29;20046;-64
2021/08/05 02:00:24;;;;;;;10.00;8.38;;;;;;;16.60;52.41;100651.06;7810780;29;20097;-64
2021/08/05 02:04:17;;;;;;;10.38;8.63;;;;;;;16.57;52.43;100645.22;7805649;29;20043;-64
2021/08/05 02:08:10;;;;;;;10.80;8.63;;;;;;;16.53;52.47;100655.25;7808971;29;20036;-64
2021/08/05 02:12:01;;;;;;;10.40;8.25;;;;;;;16.45;52.49;100639.22;7807057;29;20036;-64
2021/08/05 02:15:56;;;;;;;9.70;8.15;;;;;;;16.48;52.59;100646.06;7812372;29;20036;-64
2021/08/05 02:19:47;;;;;;;9.18;8.18;;;;;;;16.44;52.56;100645.53;7813037;29;20036;-64
2021/08/05 02:23:39;;;;;;;9.18;7.85;;;;;;;16.38;52.68;100627.53;7807202;29;20130;-64
2021/08/05 02:27:30;;;;;;;9.40;8.43;;;;;;;16.35;52.84;100622.53;7816998;29;20200;-64
2021/08/05 02:31:22;;;;;;;10.23;8.50;;;;;;;16.38;52.85;100622.22;7812492;29;20032;-64
2021/08/05 02:35:14;;;;;;;10.10;9.05;;;;;;;16.36;52.82;100621.56;7801906;29;20035;-64
2021/08/05 02:39:05;;;;;;;12.07;8.55;;;;;;;16.32;52.93;100622.81;7804443;29;20115;-64
2021/08/05 02:42:58;;;;;;;11.40;8.88;;;;;;;16.33;52.84;100619.16;7802208;29;20421;-64
2021/08/05 02:46:50;;;;;;;10.40;8.82;;;;;;;16.29;52.97;100617.78;7804938;29;20039;-65
2021/08/05 02:50:42;;;;;;;11.75;8.63;;;;;;;16.29;52.92;100617.78;7809177;29;20628;-66
2021/08/05 02:54:33;;;;;;;11.00;9.18;;;;;;;16.27;53.02;100618.94;7808989;29;20055;-64
2021/08/05 02:58:24;;;;;;;9.45;8.35;;;;;;;16.19;52.98;100609.03;7809709;29;20035;-64
2021/08/05 03:02:15;;;;;;;8.57;7.68;;;;;;;16.22;53.02;100611.41;7805819;29;20040;-64
2021/08/05 03:06:06;;;;;;;9.88;7.63;;;;;;;16.21;53.13;100619.50;7803293;29;20055;-64
2021/08/05 03:09:57;;;;;;;10.70;7.97;;;;;;;16.19;53.19;100619.66;7804291;29;20102;-64
2021/08/05 03:13:48;;;;;;;8.75;7.70;;;;;;;16.17;53.16;100616.28;7812801;29;20035;-64
2021/08/05 03:17:39;;;;;;;8.57;7.55;;;;;;;16.15;53.19;100612.97;7805320;29;20050;-64
2021/08/05 03:21:29;;;;;;;12.55;8.75;;;;;;;16.09;53.13;100606.38;7809232;29;20047;-64
2021/08/05 03:25:20;;;;;;;10.38;8.00;;;;;;;16.12;53.24;100613.22;7800600;29;20032;-64
2021/08/05 03:29:25;;;;;;;9.23;7.97;;;;;;;16.08;53.33;100611.81;7796936;29;20039;-64
2021/08/05 03:33:16;;;;;;;10.75;8.48;;;;;;;16.07;53.37;100607.50;7802454;29;20119;-64
2021/08/05 03:37:06;;;;;;;10.35;7.70;;;;;;;16.06;53.46;100608.47;7807902;29;20445;-64
2021/08/05 03:40:57;;;;;;;10.07;7.55;;;;;;;15.98;53.54;100598.59;7810194;29;20032;-64
2021/08/05 03:44:50;;;;;;;14.25;7.53;;;;;;;16.03;53.64;100595.53;7806863;29;20496;-64
2021/08/05 03:48:40;;;;;;;10.60;7.80;;;;;;;16.03;53.61;100592.88;7802692;29;20480;-64
2021/08/05 03:52:31;;;;;;;14.13;8.38;;;;;;;16.01;53.68;100606.25;7806664;29;20045;-65
2021/08/05 03:56:22;;;;;;;12.50;8.00;;;;;;;16.01;53.64;100594.81;7804629;29;20682;-64
2021/08/05 04:00:16;;;;;;;11.73;8.40;;;;;;;15.98;53.71;100590.66;7811221;29;20028;-64
2021/08/05 04:04:07;;;;;;;12.88;7.53;;;;;;;15.98;53.78;100598.59;7810633;29;20400;-64
2021/08/05 04:07:57;;;;;;;13.20;8.10;;;;;;;15.98;53.90;100600.41;7805407;29;20046;-64
2021/08/05 04:11:48;;;;;;;12.45;7.60;;;;;;;15.96;53.81;100594.41;7809775;29;20040;-64
2021/08/05 04:15:40;;;;;;;12.93;8.18;;;;;;;15.95;53.87;100590.97;7802509;29;20088;-64
2021/08/05 04:19:31;;;;;;;11.80;7.85;;;;;;;15.94;53.94;100596.38;7791165;29;20035;-64
2021/08/05 04:23:22;;;;;;;17.30;7.80;;;;;;;15.93;53.97;100589.41;7803904;29;20042;-64
2021/08/05 04:27:12;;;;;;;15.07;7.72;;;;;;;15.92;54.05;100585.91;7800490;29;20046;-64
2021/08/05 04:31:03;;;;;;;15.70;8.10;;;;;;;15.92;54.12;100585.91;7807895;29;20039;-64
2021/08/05 04:34:54;;;;;;;19.20;9.15;;;;;;;15.93;54.03;100586.75;7806804;29;20032;-64
2021/08/05 04:38:44;;;;;;;26.40;9.25;;;;;;;15.93;54.19;100592.91;7804275;29;20032;-64
2021/08/05 04:42:35;;;;;;;20.73;8.43;;;;;;;15.93;54.07;100590.25;7809179;29;20048;-64
2021/08/05 04:46:26;;;;;;;15.77;8.88;;;;;;;15.93;54.14;100581.47;7807732;29;20457;-64
2021/08/05 04:50:17;;;;;;;15.30;8.82;;;;;;;15.94;54.30;100576.03;7807366;29;20031;-64
2021/08/05 04:54:08;;;;;;;16.52;8.40;;;;;;;15.94;54.32;100581.31;7810753;29;20039;-64
2021/08/05 04:58:01;;;;;;;17.00;8.50;;;;;;;15.96;54.31;100578.50;7802073;29;20082;-64
2021/08/05 05:01:51;;;;;;;15.50;8.00;;;;;;;15.97;54.57;100577.53;7806618;29;20071;-64
2021/08/05 05:05:42;;;;;;;10.95;7.60;;;;;;;15.97;54.33;100564.28;7792939;29;20692;-64
2021/08/05 05:09:33;;;;;;;17.63;7.40;;;;;;;16.00;54.42;100566.66;7786006;29;20226;-64
2021/08/05 05:13:25;;;;;;;15.02;7.63;;;;;;;16.01;54.38;100565.69;7794410;29;20043;-64
2021/08/05 05:17:16;;;;;;;18.77;8.07;;;;;;;16.04;54.47;100568.88;7787541;29;20048;-63
2021/08/05 05:21:06;;;;;;;20.55;7.90;;;;;;;16.09;54.40;100560.50;7792884;29;20038;-63
2021/08/05 05:24:57;;;;;;;14.55;7.50;;;;;;;16.14;54.46;100560.94;7791257;29;20481;-63
2021/08/05 05:28:48;;;;;;;16.25;8.40;;;;;;;16.23;54.42;100564.53;7803564;29;20047;-63
2021/08/05 05:32:39;;;;;;;12.88;9.00;;;;;;;16.37;54.69;100564.88;7790609;29;20036;-64
2021/08/05 05:36:30;;;;;;;16.60;8.40;;;;;;;16.55;54.73;100549.88;7801814;29;20040;-63
2021/08/05 05:40:21;;;;;;;13.50;8.95;;;;;;;16.86;54.44;100560.19;7798261;29;20086;-63
2021/08/05 05:44:11;;;;;;;19.98;9.13;;;;;;;17.09;54.60;100562.28;7795937;29;20059;-64
2021/08/05 05:48:03;;;;;;;17.27;10.65;;;;;;;17.34;54.39;100565.16;7794376;29;20036;-64
2021/08/05 05:51:54;;;;;;;16.92;9.57;;;;;;;17.40;54.06;100568.03;7803120;29;20588;-65
2021/08/05 05:55:44;;;;;;;11.38;8.80;;;;;;;17.40;54.44;100565.38;7807587;29;20036;-64
2021/08/05 05:59:35;;;;;;;12.82;8.95;;;;;;;17.40;54.34;100572.53;7804952;29;20766;-64
2021/08/05 06:03:26;;;;;;;15.00;9.45;;;;;;;17.40;54.17;100575.19;7802768;29;20082;-65
2021/08/05 06:07:16;;;;;;;13.60;8.82;;;;;;;17.37;54.05;100578.97;7813707;29;20035;-65
2021/08/05 06:11:07;;;;;;;15.57;8.60;;;;;;;17.35;54.19;100575.66;7802298;29;20056;-65
2021/08/05 06:14:58;;;;;;;16.15;9.30;;;;;;;17.43;54.26;100574.88;7797654;29;20048;-65
2021/08/05 06:18:49;;;;;;;12.65;8.73;;;;;;;17.43;54.39;100580.19;7800919;29;20509;-64
2021/08/05 06:22:41;;;;;;;12.48;9.63;;;;;;;17.45;54.29;100581.69;7809940;29;20048;-64
2021/08/05 06:26:32;;;;;;;18.88;10.60;;;;;;;17.48;54.36;100585.88;7797550;29;20044;-64
2021/08/05 06:30:23;;;;;;;16.52;9.15;;;;;;;17.53;54.06;100589.72;7814381;29;20615;-64
2021/08/05 06:34:13;;;;;;;13.73;9.52;;;;;;;17.69;54.33;100593.56;7818738;29;20039;-64
2021/08/05 06:38:04;;;;;;;16.23;9.52;;;;;;;18.08;54.15;100588.66;7803324;29;20064;-65
2021/08/05 06:41:54;;;;;;;9.90;8.45;;;;;;;18.33;53.96;100593.97;7794805;29;20523;-64
2021/08/05 06:45:45;;;;;;;14.70;8.07;;;;;;;18.40;54.26;100580.88;7797821;29;20040;-66
2021/08/05 06:49:36;;;;;;;10.85;8.05;;;;;;;18.51;53.96;100590.44;7795086;29;20586;-64
2021/08/05 06:53:34;;;;;;;12.30;9.05;;;;;;;18.53;53.63;100593.75;7802245;29;20047;-64
2021/08/05 06:57:25;;;;;;;11.60;7.45;;;;;;;18.51;53.58;100585.13;7805257;29;20035;-65
2021/08/05 07:01:16;;;;;;;15.10;8.70;;;;;;;18.48;53.41;100590.78;7815099;29;20050;-65
2021/08/05 07:05:09;;;;;;;12.65;8.25;;;;;;;18.47;53.64;100584.63;7809925;29;20035;-62
2021/08/05 07:09:00;;;;;;;10.23;7.75;;;;;;;18.47;53.86;100589.09;7813904;29;20028;-65
2021/08/05 07:12:51;;;;;;;14.80;8.77;;;;;;;18.46;53.51;100585.59;7787822;29;20042;-64
2021/08/05 07:16:41;;;;;;;16.20;8.88;;;;;;;18.36;53.83;100577.69;7790407;29;20555;-63
2021/08/05 07:20:32;;;;;;;13.23;8.88;;;;;;;18.38;54.04;100593.50;7786654;29;20096;-64
2021/08/05 07:24:24;;;;;;;9.38;7.35;;;;;;;18.36;53.59;100591.00;7800433;29;20063;-63
2021/08/05 07:28:14;;;;;;;12.32;8.45;;;;;;;18.34;53.79;100592.16;7794073;29;20035;-63
2021/08/05 07:32:06;;;;;;;13.20;8.50;;;;;;;18.33;53.62;100590.47;7797597;29;20032;-63
2021/08/05 07:35:57;;;;;;;16.83;8.55;;;;;;;18.32;53.85;100589.66;7773185;29;20048;-66
2021/08/05 07:39:47;;;;;;;11.85;7.18;;;;;;;18.34;53.94;100598.31;7786827;29;20146;-62
2021/08/05 07:43:38;;;;;;;12.07;7.60;;;;;;;18.29;53.60;100573.19;7783424;29;20040;-63
2021/08/05 07:47:29;;;;;;;10.13;7.18;;;;;;;18.31;53.72;100580.03;7783785;29;20036;-63
2021/08/05 07:51:19;;;;;;;15.32;9.10;;;;;;;18.29;53.37;100589.97;7780341;29;20042;-64
2021/08/05 07:55:11;;;;;;;23.83;9.35;;;;;;;18.23;53.53;100581.81;7778911;29;20043;-64
2021/08/05 07:59:01;;;;;;;11.65;7.90;;;;;;;18.20;53.90;100574.97;7780965;29;20095;-65
2021/08/05 08:02:52;;;;;;;10.05;7.68;;;;;;;18.18;53.67;100565.47;7781422;29;20044;-63
2021/08/05 08:06:42;;;;;;;13.35;8.23;;;;;;;18.13;53.71;100557.97;7775973;29;20047;-66
2021/08/05 08:10:34;;;;;;;13.85;9.10;;;;;;;18.14;53.35;100562.31;7779046;29;20075;-65
2021/08/05 08:14:24;;;;;;;9.63;6.88;;;;;;;18.16;53.34;100565.63;7780467;29;21092;-65
2021/08/05 08:18:16;;;;;;;14.25;7.57;;;;;;;18.20;53.49;100553.69;7787471;29;20051;-64
2021/08/05 08:22:06;;;;;;;12.45;7.90;;;;;;;18.24;53.31;100552.38;7779128;29;20119;-63
2021/08/05 08:25:57;;;;;;;12.95;7.40;;;;;;;18.30;53.93;100553.59;7784272;29;20031;-65
2021/08/05 08:29:47;;;;;;;15.13;8.20;;;;;;;18.34;53.95;100553.09;7781035;29;20044;-64
2021/08/05 08:33:38;;;;;;;13.57;8.80;;;;;;;18.37;53.49;100552.78;7780311;29;20024;-62
2021/08/05 08:37:29;;;;;;;9.68;7.53;;;;;;;18.43;53.75;100551.34;7781398;29;20040;-64
2021/08/05 08:41:20;;;;;;;9.93;6.85;;;;;;;18.43;53.51;100538.88;7786594;29;20052;-65
2021/08/05 08:45:13;;;;;;;14.35;7.72;;;;;;;18.53;53.50;100545.88;7777751;29;20040;-65
2021/08/05 08:49:04;;;;;;;9.07;7.93;;;;;;;18.55;53.66;100543.91;7778294;29;20043;-64
2021/08/05 08:53:00;;;;;;;9.98;7.47;;;;;;;18.59;53.34;100539.94;7781387;29;20461;-64
2021/08/05 08:56:53;;;;;;;11.50;7.70;;;;;;;18.62;53.20;100545.75;7777621;29;20111;-63
2021/08/05 09:00:44;;;;;;;13.63;7.38;;;;;;;18.68;53.32;100533.66;7778437;29;20128;-62
2021/08/05 09:04:35;;;;;;;11.98;7.68;;;;;;;18.71;53.32;100536.81;7779013;29;20040;-63
2021/08/05 09:08:25;;;;;;;11.90;7.05;;;;;;;18.75;53.05;100543.47;7784326;29;20065;-63
2021/08/05 09:12:16;;;;;;;8.70;6.68;;;;;;;18.79;53.23;100541.31;7784010;29;20040;-62
2021/08/05 09:16:25;;;;;;;10.73;7.22;;;;;;;18.81;53.62;100537.50;7784797;29;20091;-63
2021/08/05 09:20:16;;;;;;;11.73;7.50;;;;;;;18.88;53.29;100540.34;7788326;29;20072;-63
2021/08/05 09:24:09;;;;;;;10.93;8.18;;;;;;;18.96;53.10;100539.53;7786028;29;20040;-64
2021/08/05 09:28:14;;;;;;;11.77;7.25;;;;;;;19.00;53.12;100538.22;7787636;29;20035;-65
2021/08/05 09:32:05;;;;;;;15.13;8.80;;;;;;;19.11;53.56;100538.72;7784948;29;20087;-64
2021/08/05 09:35:56;;;;;;;13.10;7.63;;;;;;;19.24;53.16;100535.59;7783150;29;20115;-63
2021/08/05 09:39:46;;;;;;;15.15;7.75;;;;;;;19.36;52.71;100524.47;7789250;29;20040;-64
2021/08/05 09:43:38;;;;;;;9.52;6.88;;;;;;;19.51;52.72;100524.63;7788226;29;20050;-64
2021/08/05 09:47:28;;;;;;;10.93;7.38;;;;;;;19.64;52.31;100521.47;7787576;29;20039;-63
2021/08/05 09:51:19;;;;;;;10.48;7.32;;;;;;;19.74;52.38;100519.44;7787759;29;20092;-64
2021/08/05 09:55:21;;;;;;;13.52;7.10;;;;;;;19.85;52.24;100507.59;7791992;29;20046;-64
2021/08/05 09:59:13;;;;;;;10.85;8.27;;;;;;;20.01;51.62;100512.91;7789266;29;20040;-65
2021/08/05 10:03:04;;;;;;;11.57;7.95;;;;;;;20.12;51.57;100500.03;7788801;29;20542;-64
2021/08/05 10:06:57;;;;;;;9.82;7.53;;;;;;;20.27;51.70;100495.66;7781224;29;20509;-65
2021/08/05 10:10:51;;;;;;;11.40;7.00;;;;;;;20.45;51.46;100489.22;7785585;29;20049;-62
2021/08/05 10:14:43;;;;;;;11.60;7.90;;;;;;;20.56;50.97;100476.34;7787769;29;20032;-63
2021/08/05 10:18:35;;;;;;;16.27;7.15;;;;;;;20.82;50.98;100480.53;7782196;29;20075;-64
2021/08/05 10:22:26;;;;;;;10.68;6.75;;;;;;;20.98;51.06;100472.41;7777619;29;20036;-64
2021/08/05 10:26:17;;;;;;;12.18;7.70;;;;;;;21.17;50.84;100464.72;7789399;29;20058;-65
2021/08/05 10:30:13;;;;;;;14.93;6.47;;;;;;;21.35;50.77;100469.78;7785544;29;20036;-64
2021/08/05 10:34:04;;;;;;;10.90;6.35;;;;;;;21.52;50.79;100473.97;7786355;29;20070;-65
2021/08/05 10:37:54;;;;;;;7.75;6.03;;;;;;;21.61;50.28;100469.38;7782434;29;20810;-64
2021/08/05 10:41:46;;;;;;;9.65;6.63;;;;;;;21.66;49.79;100458.97;7782317;29;20098;-63
2021/08/05 10:45:36;;;;;;;10.52;6.07;;;;;;;21.67;49.69;100459.81;7786989;29;20051;-65
2021/08/05 10:49:28;;;;;;;8.45;6.20;;;;;;;21.62;49.73;100430.97;7788221;29;20137;-64
2021/08/05 10:53:42;;;;;;;9.32;5.57;;;;;;;21.61;49.94;100443.50;7785247;29;20032;-64
2021/08/05 10:57:32;;;;;;;8.05;4.85;;;;;;;21.61;49.64;100443.50;7784558;29;20424;-65
2021/08/05 11:01:46;;;;;;;7.72;4.88;;;;;;;21.52;49.37;100433.06;7781040;29;20626;-64
2021/08/05 11:05:36;;;;;;;6.55;3.60;;;;;;;21.54;49.09;100436.38;7777633;29;20134;-65
2021/08/05 11:09:30;;;;;;;7.60;3.67;;;;;;;21.55;49.08;100432.69;7778824;29;20159;-63
2021/08/05 11:13:23;;;;;;;5.32;4.20;;;;;;;21.56;48.91;100429.84;7780514;29;20071;-63
2021/08/05 11:17:14;;;;;;;4.60;3.95;;;;;;;21.57;48.60;100425.31;7779515;29;20040;-64
2021/08/05 11:21:05;;;;;;;3.95;2.05;;;;;;;21.57;48.42;100428.00;7783026;29;20042;-65
2021/08/05 11:24:55;;;;;;;4.88;2.83;;;;;;;21.51;48.39;100421.53;7780515;29;20457;-66
2021/08/05 11:28:49;;;;;;;3.45;2.35;;;;;;;21.54;48.39;100425.69;7778912;29;20560;-65
2021/08/05 11:32:40;;;;;;;4.07;2.28;;;;;;;21.55;48.35;100422.00;7784407;29;20048;-65
2021/08/05 11:36:45;;;;;;;4.38;2.20;;;;;;;21.62;48.12;100420.28;7775704;29;20772;-65
2021/08/05 11:40:42;;;;;;;2.28;2.03;;;;;;;21.66;47.45;100408.19;7783374;29;20789;-64
2021/08/05 11:44:38;;;;;;;3.75;2.17;;;;;;;21.71;47.71;100410.31;7784196;29;20040;-63
2021/08/05 11:48:36;;;;;;;10.95;2.90;;;;;;;21.72;47.36;100402.09;7779565;29;20047;-62
2021/08/05 11:52:27;;;;;;;2.75;2.20;;;;;;;21.78;47.26;100406.72;7784017;29;20528;-63
2021/08/05 11:56:19;;;;;;;3.25;2.45;;;;;;;21.85;46.93;100396.13;7790936;29;20147;-64
2021/08/05 12:00:21;;;;;;;4.93;2.80;;;;;;;21.87;47.00;100380.75;7783044;29;20131;-63
2021/08/05 12:04:19;;;;;;;5.22;2.75;;;;;;;21.99;46.98;100377.41;7785870;29;20580;-63
2021/08/05 12:08:11;;;;;;;4.35;2.85;;;;;;;22.06;46.77;100377.47;7777817;29;20040;-63
2021/08/05 12:12:03;;;;;;;3.60;2.92;;;;;;;22.09;47.00;100367.22;7780071;29;20042;-63
2021/08/05 12:15:56;;;;;;;3.30;2.55;;;;;;;22.14;46.90;100363.16;7789441;29;20043;-63
2021/08/05 12:19:49;;;;;;;4.28;2.50;;;;;;;22.20;46.79;100365.09;7784569;29;20036;-63
2021/08/05 12:23:43;;;;;;;2.42;1.95;;;;;;;22.25;46.91;100351.97;7781905;29;20067;-63
2021/08/05 12:27:33;;;;;;;2.60;1.98;;;;;;;22.30;46.57;100353.03;7780801;29;20444;-63
2021/08/05 12:31:24;;;;;;;3.53;2.55;;;;;;;22.28;46.28;100349.75;7783361;29;20923;-63
2021/08/05 12:35:15;;;;;;;3.15;2.03;;;;;;;22.24;46.42;100348.47;7780582;29;20516;-63
2021/08/05 12:39:07;;;;;;;3.60;2.15;;;;;;;22.20;46.39;100336.50;7780252;29;20036;-63
2021/08/05 12:43:01;;;;;;;2.15;1.80;;;;;;;22.19;46.38;100332.16;7790692;29;20489;-63
2021/08/05 12:46:55;;;;;;;4.00;2.30;;;;;;;22.13;46.13;100324.88;7785367;29;20063;-63
2021/08/05 12:50:47;;;;;;;2.45;1.95;;;;;;;22.11;45.71;100323.41;7783561;29;20036;-63
2021/08/05 12:54:38;;;;;;;2.10;1.77;;;;;;;22.07;45.58;100320.28;7782879;29;20036;-63
2021/08/05 12:58:30;;;;;;;5.55;2.00;;;;;;;22.04;45.36;100312.66;7782791;29;20143;-63
2021/08/05 13:02:20;;;;;;;3.53;2.17;;;;;;;21.98;45.51;100311.56;7780943;29;20041;-63
2021/08/05 13:06:11;;;;;;;3.25;2.10;;;;;;;21.93;45.45;100307.78;7777487;29;20440;-63
2021/08/05 13:10:02;;;;;;;3.38;2.20;;;;;;;21.89;45.37;100298.47;7776089;29;20033;-64
2021/08/05 13:13:56;;;;;;;5.00;1.73;;;;;;;21.88;45.71;100296.81;7776750;29;20756;-61
2021/08/05 13:17:46;;;;;;;5.32;1.73;;;;;;;21.90;45.72;100292.94;7778144;29;20579;-63
2021/08/05 13:21:58;;;;;;;5.82;1.90;;;;;;;21.92;45.86;100296.25;7778149;29;20044;-63
2021/08/05 13:25:49;;;;;;;4.03;1.80;;;;;;;21.99;45.63;100299.84;7777467;29;20592;-63
2021/08/05 13:29:43;;;;;;;3.95;1.85;;;;;;;22.02;45.20;100294.13;7784006;29;20032;-63
2021/08/05 13:33:34;;;;;;;2.28;0.98;;;;;;;22.02;45.48;100291.44;7781621;29;20043;-63
2021/08/05 13:37:36;;;;;;;1.85;1.40;;;;;;;22.07;45.24;100285.53;7779990;29;20036;-63
2021/08/05 13:41:27;;;;;;;1.88;1.02;;;;;;;22.11;45.10;100281.44;7785374;29;20124;-62
2021/08/05 13:45:18;;;;;;;2.40;1.30;;;;;;;22.17;44.80;100271.81;7782412;29;20036;-64
2021/08/05 13:49:09;;;;;;;3.28;1.40;;;;;;;22.22;45.02;100264.03;7784154;29;20044;-64
2021/08/05 13:53:01;;;;;;;6.15;1.20;;;;;;;22.25;44.67;100255.66;7779189;29;20027;-63
2021/08/05 13:56:51;;;;;;;2.22;1.48;;;;;;;22.27;44.79;100257.13;7781415;29;20108;-64
2021/08/05 14:00:42;;;;;;;2.92;1.33;;;;;;;22.29;44.51;100256.94;7794738;29;20044;-65
2021/08/05 14:04:33;;;;;;;3.35;1.33;;;;;;;22.29;44.54;100260.41;7793869;29;20536;-63
2021/08/05 14:08:23;;;;;;;2.85;1.38;;;;;;;22.30;44.27;100250.53;7781340;29;20489;-63
2021/08/05 14:12:15;;;;;;;1.55;1.45;;;;;;;22.30;44.26;100254.03;7788255;29;20036;-64
2021/08/05 14:16:05;;;;;;;1.20;1.10;;;;;;;22.27;44.39;100251.75;7789608;29;20044;-64
2021/08/05 14:19:56;;;;;;;2.78;1.25;;;;;;;22.23;44.46;100245.13;7787729;29;20100;-62
2021/08/05 14:23:47;;;;;;;2.00;1.10;;;;;;;22.19;43.74;100243.03;7785290;29;20061;-64
2021/08/05 14:27:37;;;;;;;4.60;1.30;;;;;;;22.12;43.96;100237.63;7784862;29;20048;-62
2021/08/05 14:31:28;;;;;;;1.73;1.08;;;;;;;22.07;43.69;100235.53;7786968;29;20051;-63
2021/08/05 14:35:19;;;;;;;1.48;1.17;;;;;;;22.04;43.91;100232.41;7788275;29;20500;-64
2021/08/05 14:39:10;;;;;;;1.20;1.10;;;;;;;22.01;43.72;100222.09;7788883;29;20785;-64
2021/08/05 14:43:00;;;;;;;1.50;1.10;;;;;;;21.97;44.42;100231.50;7785931;29;20039;-62
2021/08/05 14:46:51;;;;;;;3.58;1.20;;;;;;;21.92;44.30;100226.72;7780394;29;20098;-64
2021/08/05 14:50:42;;;;;;;1.25;1.00;;;;;;;21.91;44.77;100224.25;7781317;29;20497;-63
2021/08/05 14:54:33;;;;;;;3.53;1.55;;;;;;;21.89;44.44;100224.44;7791962;29;20043;-64
2021/08/05 14:58:24;;;;;;;9.10;1.25;;;;;;;21.89;44.07;100226.28;7783942;29;20048;-64
2021/08/05 15:02:15;;;;;;;2.25;1.08;;;;;;;21.88;43.79;100220.09;7781855;29;20095;-64
2021/08/05 15:06:06;;;;;;;4.25;1.02;;;;;;;21.86;43.81;100200.75;7783394;29;20040;-64
2021/08/05 15:09:56;;;;;;;2.28;1.27;;;;;;;21.94;44.08;100202.47;7779807;29;20024;-64
2021/08/05 15:13:47;;;;;;;1.65;1.10;;;;;;;21.96;44.04;100203.09;7780615;29;20054;-64
2021/08/05 15:17:38;;;;;;;4.70;1.30;;;;;;;21.99;43.85;100190.19;7781638;29;20043;-63
2021/08/05 15:21:30;;;;;;;1.92;1.35;;;;;;;22.16;43.68;100189.94;7780354;29;20134;-63
2021/08/05 15:25:21;;;;;;;1.35;1.13;;;;;;;22.25;43.85;100184.22;7780878;29;21095;-64
2021/08/05 15:29:11;;;;;;;4.05;1.30;;;;;;;22.34;43.65;100199.13;7781343;29;20543;-63
2021/08/05 15:33:03;;;;;;;3.50;1.30;;;;;;;22.38;43.78;100183.50;7785831;29;20067;-64
2021/08/05 15:36:54;;;;;;;1.88;1.20;;;;;;;22.46;43.74;100186.03;7784564;29;20044;-64
2021/08/05 15:40:46;;;;;;;1.58;1.27;;;;;;;22.47;43.55;100174.34;7786446;29;20036;-64
2021/08/05 15:44:36;;;;;;;2.90;1.05;;;;;;;22.48;43.84;100173.34;7780643;29;20647;-64
2021/08/05 15:48:27;;;;;;;1.48;1.23;;;;;;;22.47;43.40;100166.31;7783483;29;20536;-62
2021/08/05 15:52:17;;;;;;;1.48;1.30;;;;;;;22.46;43.45;100167.31;7788586;29;20039;-62
2021/08/05 15:56:08;;;;;;;0.93;0.90;;;;;;;22.46;43.63;100167.31;7783158;29;20028;-63
2021/08/05 16:00:01;;;;;;;1.98;1.33;;;;;;;22.49;43.68;100156.25;7778718;29;20040;-64
2021/08/05 16:03:51;;;;;;;1.70;1.30;;;;;;;22.51;43.66;100152.34;7779274;29;20114;-63
2021/08/05 16:07:42;;;;;;;1.35;1.25;;;;;;;22.54;43.65;100165.34;7779413;29;20043;-62
2021/08/05 16:11:34;;;;;;;1.30;1.05;;;;;;;22.59;43.67;100155.88;7784718;29;20032;-64
2021/08/05 16:15:25;;;;;;;0.85;0.85;;;;;;;22.60;43.18;100155.69;7786669;29;20039;-64
2021/08/05 16:19:16;;;;;;;4.30;1.20;;;;;;;22.62;43.25;100153.66;7782525;29;20028;-62
2021/08/05 16:23:08;;;;;;;1.35;1.13;;;;;;;22.64;43.05;100156.97;7781990;29;20042;-63
2021/08/05 16:26:59;;;;;;;2.10;1.40;;;;;;;22.62;43.55;100147.47;7787512;29;20048;-65
2021/08/05 16:30:49;;;;;;;1.30;1.10;;;;;;;22.58;43.43;100147.03;7782475;29;20044;-64
2021/08/05 16:34:41;;;;;;;1.42;0.80;;;;;;;22.57;43.38;100147.25;7782089;29;20493;-63
2021/08/05 16:38:31;;;;;;;0.80;0.80;;;;;;;22.52;43.38;100147.81;7789082;29;20397;-61
2021/08/05 16:42:22;;;;;;;1.20;1.00;;;;;;;22.44;43.47;100154.13;7790948;29;20489;-62
2021/08/05 16:46:19;;;;;;;1.30;0.95;;;;;;;22.38;43.51;100143.38;7784361;29;20054;-63
2021/08/05 16:50:09;;;;;;;3.97;1.40;;;;;;;22.31;43.52;100142.50;7785822;29;20766;-63
2021/08/05 16:54:00;;;;;;;1.05;0.90;;;;;;;22.25;43.33;100140.63;7784168;29;20040;-62
2021/08/05 16:57:51;;;;;;;1.23;1.13;;;;;;;22.18;43.48;100142.41;7785242;29;20051;-63
2021/08/05 17:01:41;;;;;;;1.58;1.00;;;;;;;22.11;43.66;100146.88;7783301;29;20118;-63
2021/08/05 17:05:32;;;;;;;1.92;1.05;;;;;;;22.04;43.62;100134.28;7777882;29;20044;-66
2021/08/05 17:09:22;;;;;;;1.27;1.02;;;;;;;21.98;43.82;100134.22;7781658;29;20508;-65
2021/08/05 17:13:13;;;;;;;1.23;1.13;;;;;;;21.94;43.75;100138.31;7782891;29;20040;-63
2021/08/05 17:17:04;;;;;;;1.77;1.25;;;;;;;21.89;43.51;100132.69;7778753;29;20079;-63
2021/08/05 17:20:54;;;;;;;4.65;1.25;;;;;;;21.85;43.68;100131.44;7778867;29;20040;-64
2021/08/05 17:24:45;;;;;;;2.88;1.50;;;;;;;21.76;43.65;100116.50;7778749;29;20035;-64
2021/08/05 17:28:36;;;;;;;1.55;1.05;;;;;;;21.76;43.74;100120.00;7778000;29;20532;-62
2021/08/05 17:32:27;;;;;;;1.02;0.93;;;;;;;21.74;43.93;100116.72;7785616;29;20040;-63
2021/08/05 17:36:18;;;;;;;1.33;1.00;;;;;;;21.64;43.92;100106.34;7782261;29;20442;-61
2021/08/05 17:40:09;;;;;;;1.40;1.00;;;;;;;21.60;43.96;100109.59;7781050;29;20707;-64
2021/08/05 17:43:59;;;;;;;2.00;1.17;;;;;;;21.62;44.23;100107.56;7781567;29;20516;-64
2021/08/05 17:47:52;;;;;;;2.42;1.00;;;;;;;21.58;43.92;100108.97;7785387;29;20039;-64
2021/08/05 17:51:43;;;;;;;4.18;1.10;;;;;;;21.53;43.92;100109.53;7792643;29;20084;-64